Time;durP1;ratioP1;P1;durP2;ratioP2;P2;SDS_P1;SDS_P2;PMS_P1;PMS_P2;Temp;Humidity;BMP_temperature;BMP_pressure;BME280_temperature;BME280_humidity;BME280_pressure;Samples;Min_cycle;Max_cycle;Signal;HPM_P1;HPM_P2
2022/07/31 00:00:48;;;;;;;2.70;1.80;;;;;;;17.92;100.00;100312.72;5056000;28;20033;-79
2022/07/31 00:03:13;;;;;;;2.13;1.83;;;;;;;17.91;100.00;100313.75;5036814;28;20045;-79
2022/07/31 00:05:39;;;;;;;2.42;2.13;;;;;;;17.92;100.00;100314.53;5050596;28;20032;-79
2022/07/31 00:08:05;;;;;;;2.60;2.40;;;;;;;17.91;100.00;100315.56;5054676;28;20024;-80
2022/07/31 00:10:31;;;;;;;3.45;1.98;;;;;;;17.85;100.00;100309.97;5054668;28;20025;-81
2022/07/31 00:12:57;;;;;;;3.85;2.40;;;;;;;17.83;100.00;100306.69;5054280;28;20037;-81
2022/07/31 00:15:23;;;;;;;3.65;2.05;;;;;;;17.79;100.00;100310.78;5046903;28;20037;-81
2022/07/31 00:17:49;;;;;;;5.63;2.85;;;;;;;17.75;100.00;100314.88;5054161;28;20033;-79
2022/07/31 00:20:16;;;;;;;4.30;2.17;;;;;;;17.72;100.00;100310.75;5080323;28;20476;-79
2022/07/31 00:22:47;;;;;;;3.92;1.85;;;;;;;17.70;100.00;100304.75;5056115;28;20021;-79
2022/07/31 00:25:14;;;;;;;3.17;1.42;;;;;;;17.67;100.00;100305.16;5053623;28;20029;-79
2022/07/31 00:27:41;;;;;;;2.92;1.63;;;;;;;17.66;100.00;100305.34;5056690;28;20029;-79
2022/07/31 00:30:08;;;;;;;3.08;1.27;;;;;;;17.65;100.00;100317.88;5053322;28;20033;-79
2022/07/31 00:32:34;;;;;;;1.60;1.50;;;;;;;17.65;100.00;100309.03;5053144;28;20478;-79
2022/07/31 00:35:00;;;;;;;3.40;1.90;;;;;;;17.64;100.00;100304.72;5085256;28;20037;-79
2022/07/31 00:37:26;;;;;;;1.73;1.55;;;;;;;17.61;100.00;100301.41;5064065;28;20041;-79
2022/07/31 00:39:53;;;;;;;1.30;1.20;;;;;;;17.64;100.00;100315.41;5047338;28;20048;-79
2022/07/31 00:42:24;;;;;;;1.67;1.58;;;;;;;17.63;100.00;100313.75;5045091;28;20059;-79
2022/07/31 00:44:51;;;;;;;2.65;1.52;;;;;;;17.64;100.00;100316.22;5068675;28;20028;-79
2022/07/31 00:47:17;;;;;;;1.80;1.13;;;;;;;17.63;100.00;100314.56;5050625;28;20028;-78
2022/07/31 00:49:44;;;;;;;2.78;1.33;;;;;;;17.63;100.00;100317.22;5051901;28;20035;-78
2022/07/31 00:52:11;;;;;;;1.50;1.38;;;;;;;17.60;100.00;100315.78;5058834;28;20033;-78
2022/07/31 00:54:37;;;;;;;2.00;1.13;;;;;;;17.59;100.00;100318.66;5052018;28;20473;-79
2022/07/31 00:57:03;;;;;;;2.92;1.50;;;;;;;17.60;100.00;100323.81;5047563;28;20040;-79
2022/07/31 00:59:30;;;;;;;6.22;1.10;;;;;;;17.61;100.00;100319.28;5044666;28;20037;-78
2022/07/31 01:01:57;;;;;;;2.20;0.82;;;;;;;17.58;100.00;100314.34;5047619;28;20473;-79
2022/07/31 01:04:25;;;;;;;1.20;0.70;;;;;;;17.57;100.00;100312.66;5050564;28;20481;-79
2022/07/31 01:06:54;;;;;;;5.80;0.63;;;;;;;17.55;100.00;100320.88;5039896;28;20045;-79
2022/07/31 01:09:21;;;;;;;1.88;0.57;;;;;;;17.52;100.00;100313.25;5048613;28;20090;-79
2022/07/31 01:11:54;;;;;;;1.95;0.52;;;;;;;17.56;100.00;100311.88;5047742;28;20503;-79
2022/07/31 01:14:26;;;;;;;5.63;0.32;;;;;;;17.56;100.00;100311.03;5048347;28;20041;-79
2022/07/31 01:16:54;;;;;;;1.38;0.30;;;;;;;17.56;100.00;100309.19;5039967;28;20028;-79
2022/07/31 01:19:40;;;;;;;3.47;0.40;;;;;;;17.52;100.00;100310.59;5043369;28;20055;-79
2022/07/31 01:22:27;;;;;;;2.22;0.52;;;;;;;17.52;100.00;100307.09;5032515;28;20029;-81
2022/07/31 01:25:21;;;;;;;3.45;0.50;;;;;;;17.48;100.00;100310.16;5056441;28;20033;-81
2022/07/31 01:28:35;;;;;;;5.25;1.95;;;;;;;17.44;100.00;100305.41;5043812;28;20028;-79
2022/07/31 01:31:08;;;;;;;0.45;0.30;;;;;;;17.42;100.00;100313.59;5062124;28;20032;-79
2022/07/31 01:33:41;;;;;;;2.55;0.30;;;;;;;17.46;100.00;100304.19;5034700;28;20032;-79
2022/07/31 01:36:13;;;;;;;4.40;0.65;;;;;;;17.48;100.00;100306.66;5054535;28;20028;-79
2022/07/31 01:38:44;;;;;;;4.32;0.35;;;;;;;17.47;100.00;100303.16;5061777;28;20064;-81
2022/07/31 01:41:13;;;;;;;1.48;0.30;;;;;;;17.49;100.00;100302.94;5053316;28;20040;-81
2022/07/31 01:43:42;;;;;;;1.70;0.30;;;;;;;17.48;100.00;100309.31;5037383;28;20037;-80
2022/07/31 01:46:12;;;;;;;2.10;0.30;;;;;;;17.49;100.00;100310.97;5029229;28;20059;-81
2022/07/31 01:48:40;;;;;;;1.65;0.30;;;;;;;17.48;100.00;100315.50;5046025;28;20549;-79
2022/07/31 01:51:07;;;;;;;5.20;0.30;;;;;;;17.49;100.00;100318.97;5061797;28;20025;-79
2022/07/31 01:53:35;;;;;;;3.03;0.20;;;;;;;17.47;100.00;100316.50;5058262;28;20041;-79
2022/07/31 01:56:02;;;;;;;2.00;0.20;;;;;;;17.46;100.00;100320.22;5053304;28;20040;-79
2022/07/31 01:58:33;;;;;;;4.00;0.30;;;;;;;17.49;100.00;100321.66;5045394;28;20036;-81
2022/07/31 02:01:06;;;;;;;1.67;0.20;;;;;;;17.50;100.00;100320.66;5038238;28;20056;-81
2022/07/31 02:03:33;;;;;;;0.88;0.20;;;;;;;17.49;100.00;100321.66;5049200;28;20028;-79
2022/07/31 02:06:01;;;;;;;1.85;0.20;;;;;;;17.50;100.00;100328.66;5058295;28;20159;-79
2022/07/31 02:08:28;;;;;;;1.15;0.28;;;;;;;17.51;100.00;100334.81;5055839;28;20056;-81
2022/07/31 02:10:56;;;;;;;1.02;0.20;;;;;;;17.48;100.00;100326.19;5052052;28;20098;-80
2022/07/31 02:13:25;;;;;;;6.35;0.32;;;;;;;17.52;100.00;100328.47;5051228;28;20028;-79
2022/07/31 02:15:52;;;;;;;2.63;0.10;;;;;;;17.52;100.00;100328.47;5057933;28;20413;-79
2022/07/31 02:18:22;;;;;;;3.55;0.20;;;;;;;17.52;100.00;100331.16;5058837;28;20079;-79
2022/07/31 02:21:09;;;;;;;9.57;1.00;;;;;;;17.52;100.00;100331.16;5051055;28;20485;-79
2022/07/31 02:23:35;;;;;;;1.98;0.40;;;;;;;17.52;100.00;100331.97;5048159;28;20067;-80
2022/07/31 02:26:02;;;;;;;2.97;0.30;;;;;;;17.53;100.00;100330.13;5047593;28;20032;-81
2022/07/31 02:28:31;;;;;;;2.58;0.20;;;;;;;17.51;100.00;100335.66;5043776;28;20393;-81
2022/07/31 02:30:57;;;;;;;7.65;0.30;;;;;;;17.45;100.00;100331.94;5039992;28;20067;-81
2022/07/31 02:33:25;;;;;;;1.75;0.20;;;;;;;17.44;100.00;100327.59;5048789;28;20044;-78
2022/07/31 02:35:54;;;;;;;2.00;0.20;;;;;;;17.41;100.00;100330.63;5065389;28;20133;-79
2022/07/31 02:38:25;;;;;;;4.80;0.40;;;;;;;17.36;100.00;100331.22;5058580;28;20053;-80
2022/07/31 02:41:00;;;;;;;3.83;0.20;;;;;;;17.35;100.00;100337.59;5050094;28;20489;-80
2022/07/31 02:43:30;;;;;;;5.97;0.75;;;;;;;17.32;100.00;100327.28;5051155;28;20052;-79
2022/07/31 02:45:58;;;;;;;0.93;0.10;;;;;;;17.34;100.00;100327.09;5044020;28;20636;-79
2022/07/31 02:48:26;;;;;;;1.58;0.10;;;;;;;17.35;100.00;100326.91;5062512;28;20082;-79
2022/07/31 02:50:54;;;;;;;0.17;0.10;;;;;;;17.38;100.00;100328.34;5059443;28;20099;-79
2022/07/31 02:53:20;;;;;;;2.25;0.10;;;;;;;17.39;100.00;100330.00;5031788;28;20113;-79
2022/07/31 02:55:50;;;;;;;1.42;0.00;;;;;;;17.39;100.00;100334.53;5052312;28;20491;-79
2022/07/31 02:58:16;;;;;;;3.30;0.20;;;;;;;17.38;100.00;100331.03;5066051;28;20227;-80
2022/07/31 03:00:44;;;;;;;0.88;0.03;;;;;;;17.39;100.00;100331.84;5052432;28;20037;-80
2022/07/31 03:03:10;;;;;;;0.10;0.00;;;;;;;17.40;100.00;100336.19;5059868;28;20476;-79
2022/07/31 03:05:36;;;;;;;0.40;0.10;;;;;;;17.38;100.00;100338.19;5062825;28;20036;-79
2022/07/31 03:08:03;;;;;;;0.90;0.10;;;;;;;17.34;100.00;100340.47;5090732;28;20029;-79
2022/07/31 03:10:30;;;;;;;4.88;0.30;;;;;;;17.32;100.00;100339.81;5063967;28;20036;-79
2022/07/31 03:13:05;;;;;;;2.22;0.22;;;;;;;17.29;100.00;100353.56;5057569;28;20036;-79
2022/07/31 03:15:31;;;;;;;2.67;0.28;;;;;;;17.22;100.00;100351.66;5050095;28;20041;-79
2022/07/31 03:17:57;;;;;;;7.30;0.40;;;;;;;17.16;100.00;100349.75;5034304;28;20370;-79
2022/07/31 03:20:33;;;;;;;4.45;0.35;;;;;;;17.13;100.00;100357.28;5056863;28;20043;-79
2022/07/31 03:23:00;;;;;;;12.50;0.40;;;;;;;17.09;100.00;100357.69;5056431;28;20033;-79
2022/07/31 03:25:27;;;;;;;3.85;0.20;;;;;;;17.09;100.00;100360.34;5057612;28;20091;-79
2022/07/31 03:27:53;;;;;;;3.72;0.38;;;;;;;17.02;100.00;100364.78;5062400;28;20025;-79
2022/07/31 03:30:23;;;;;;;7.28;0.47;;;;;;;17.00;100.00;100372.13;5062711;28;20029;-79
2022/07/31 03:32:52;;;;;;;4.72;0.50;;;;;;;16.95;100.00;100359.34;5057135;28;20037;-79
2022/07/31 03:35:19;;;;;;;5.15;0.25;;;;;;;16.96;100.00;100377.03;5044382;28;20027;-79
2022/07/31 03:37:45;;;;;;;4.00;0.20;;;;;;;16.91;100.00;100373.28;5063797;28;20509;-79
2022/07/31 03:40:11;;;;;;;2.85;0.30;;;;;;;16.90;100.00;100367.09;5059326;28;20047;-79
2022/07/31 03:42:38;;;;;;;1.75;0.10;;;;;;;16.82;100.00;100381.38;5088910;28;20135;-79
2022/07/31 03:45:06;;;;;;;0.50;0.10;;;;;;;16.74;100.00;100371.66;5060577;28;20032;-79
2022/07/31 03:47:32;;;;;;;4.50;0.40;;;;;;;16.67;100.00;100377.91;5059292;28;20029;-79
2022/07/31 03:50:00;;;;;;;2.03;0.10;;;;;;;16.58;100.00;100374.53;5057589;28;20060;-79
2022/07/31 03:52:27;;;;;;;1.67;0.30;;;;;;;16.55;100.00;100375.72;5054569;28;20037;-79
2022/07/31 03:54:54;;;;;;;3.35;0.10;;;;;;;16.58;100.00;100380.69;5067021;28;20111;-79
2022/07/31 03:57:21;;;;;;;1.73;0.30;;;;;;;16.61;100.00;100382.97;5061455;28;20083;-79
2022/07/31 03:59:49;;;;;;;3.08;0.20;;;;;;;16.63;100.00;100388.13;5061826;28;20067;-79
2022/07/31 04:02:16;;;;;;;0.85;0.13;;;;;;;16.62;100.00;100386.47;5056598;28;20020;-80
2022/07/31 04:04:49;;;;;;;0.30;0.17;;;;;;;16.63;100.00;100384.66;5064077;28;20060;-80
2022/07/31 04:07:15;;;;;;;0.52;0.10;;;;;;;16.63;100.00;100384.66;5038626;28;20029;-79
2022/07/31 04:09:42;;;;;;;2.83;0.30;;;;;;;16.61;100.00;100390.97;5054404;28;20028;-79
2022/07/31 04:12:09;;;;;;;0.77;0.20;;;;;;;16.59;100.00;100395.69;5055929;28;20056;-79
2022/07/31 04:14:35;;;;;;;0.55;0.10;;;;;;;16.58;100.00;100399.34;5060503;28;20494;-79
2022/07/31 04:17:01;;;;;;;1.83;0.20;;;;;;;16.57;100.00;100400.38;5022377;28;20048;-79
2022/07/31 04:19:31;;;;;;;0.22;0.10;;;;;;;16.54;100.00;100400.75;5059711;28;20032;-79
2022/07/31 04:21:58;;;;;;;0.85;0.20;;;;;;;16.47;100.00;100398.00;5053246;28;20111;-79
2022/07/31 04:24:24;;;;;;;0.10;0.10;;;;;;;16.39;100.00;100407.94;5070330;28;20101;-79
2022/07/31 04:27:04;;;;;;;3.13;0.20;;;;;;;16.34;100.00;100408.50;5048627;28;20125;-79
2022/07/31 04:29:37;;;;;;;1.88;0.10;;;;;;;16.30;100.00;100405.34;5056995;28;20521;-79
2022/07/31 04:32:03;;;;;;;2.15;0.22;;;;;;;16.28;100.00;100409.19;5029995;28;20068;-79
2022/07/31 04:34:38;;;;;;;0.10;0.10;;;;;;;16.19;100.00;100409.31;5050159;28;20508;-79
2022/07/31 04:37:04;;;;;;;0.10;0.10;;;;;;;16.17;100.00;100410.47;5061004;28;20032;-79
2022/07/31 04:39:30;;;;;;;3.28;0.20;;;;;;;16.12;100.00;100417.19;5065091;28;20552;-79
2022/07/31 04:41:56;;;;;;;0.20;0.20;;;;;;;16.10;100.00;100419.22;5035105;28;20032;-79
2022/07/31 04:44:23;;;;;;;4.50;0.30;;;;;;;16.09;100.00;100425.56;5050799;28;20029;-79
2022/07/31 04:46:57;;;;;;;0.10;0.10;;;;;;;16.07;100.00;100424.91;5061946;28;20041;-79
2022/07/31 04:49:23;;;;;;;1.85;0.10;;;;;;;16.02;100.00;100419.31;5046078;28;20029;-79
2022/07/31 04:51:50;;;;;;;0.30;0.30;;;;;;;16.03;100.00;100425.44;5051772;28;20091;-80
2022/07/31 04:54:15;;;;;;;0.47;0.10;;;;;;;16.02;100.00;100429.13;5051959;28;20049;-80
2022/07/31 04:56:41;;;;;;;0.68;0.10;;;;;;;15.95;100.00;100435.16;5056125;28;20035;-80
2022/07/31 04:59:11;;;;;;;0.75;0.10;;;;;;;15.91;100.00;100433.84;5060775;28;20031;-79
2022/07/31 05:01:40;;;;;;;0.22;0.10;;;;;;;15.90;100.00;100431.34;5049231;28;20033;-80
2022/07/31 05:04:08;;;;;;;0.10;0.10;;;;;;;15.84;100.00;100436.41;5051230;28;20484;-79
2022/07/31 05:06:37;;;;;;;0.20;0.05;;;;;;;15.82;100.00;100442.91;5089572;28;20032;-79
2022/07/31 05:09:06;;;;;;;0.40;0.10;;;;;;;15.76;100.00;100447.13;5052075;28;20046;-79
2022/07/31 05:11:34;;;;;;;0.98;0.05;;;;;;;15.79;100.00;100453.94;5054851;28;20032;-79
2022/07/31 05:14:02;;;;;;;0.10;0.10;;;;;;;15.80;100.00;100456.44;5055594;28;20072;-79
2022/07/31 05:16:29;;;;;;;0.05;0.05;;;;;;;15.82;100.00;100464.25;5034598;28;20045;-79
2022/07/31 05:18:55;;;;;;;0.20;0.10;;;;;;;15.86;100.00;100468.22;5071053;28;21380;-79
2022/07/31 05:21:41;;;;;;;1.88;0.10;;;;;;;15.86;100.00;100463.69;5037745;28;20167;-80
2022/07/31 05:24:22;;;;;;;1.42;0.10;;;;;;;15.87;100.00;100470.72;5060630;28;20458;-79
2022/07/31 05:26:56;;;;;;;1.58;0.05;;;;;;;15.84;100.00;100467.56;5058826;28;20044;-79
2022/07/31 05:29:24;;;;;;;0.70;0.17;;;;;;;15.82;100.00;100477.56;5054974;28;20029;-79
2022/07/31 05:31:50;;;;;;;3.70;0.10;;;;;;;15.78;100.00;100470.94;5084537;28;20040;-81
2022/07/31 05:34:16;;;;;;;0.43;0.10;;;;;;;15.78;100.00;100482.44;5051008;28;20036;-81
2022/07/31 05:36:42;;;;;;;1.95;0.22;;;;;;;15.71;100.00;100489.47;5058411;28;20033;-79
2022/07/31 05:39:09;;;;;;;1.70;0.13;;;;;;;15.65;100.00;100493.69;5048241;28;20056;-79
2022/07/31 05:41:38;;;;;;;1.00;0.10;;;;;;;15.65;100.00;100496.34;5052534;28;20041;-79
2022/07/31 05:44:24;;;;;;;0.10;0.10;;;;;;;15.62;100.00;100494.03;5055938;28;20048;-79
2022/07/31 05:46:51;;;;;;;1.15;0.20;;;;;;;15.64;100.00;100497.34;5053156;28;20504;-79
2022/07/31 05:49:18;;;;;;;0.77;0.10;;;;;;;15.64;100.00;100500.00;5055465;28;20043;-79
2022/07/31 05:51:52;;;;;;;2.40;0.20;;;;;;;15.61;100.00;100508.34;5032157;28;20033;-79
2022/07/31 05:54:20;;;;;;;0.65;0.10;;;;;;;15.55;100.00;100504.56;5055806;28;20033;-79
2022/07/31 05:57:04;;;;;;;0.60;0.20;;;;;;;15.56;100.00;100518.72;5048395;28;20148;-79
2022/07/31 05:59:35;;;;;;;0.63;0.20;;;;;;;15.60;100.00;100523.53;5048699;28;20048;-79
2022/07/31 06:02:02;;;;;;;0.90;0.20;;;;;;;15.65;100.00;100516.81;5053410;28;20087;-79
2022/07/31 06:04:30;;;;;;;1.45;0.25;;;;;;;15.68;100.00;100524.47;5051281;28;20037;-79
2022/07/31 06:06:56;;;;;;;0.63;0.10;;;;;;;15.73;100.00;100528.28;5060739;28;20059;-79
2022/07/31 06:09:22;;;;;;;0.60;0.13;;;;;;;15.76;100.00;100532.41;5069459;28;20029;-79
2022/07/31 06:11:49;;;;;;;0.10;0.10;;;;;;;15.79;100.00;100533.88;5053956;28;20044;-79
2022/07/31 06:14:15;;;;;;;3.60;0.73;;;;;;;15.83;100.00;100535.22;5052487;28;20033;-79
2022/07/31 06:17:07;;;;;;;2.85;0.47;;;;;;;15.84;100.00;100543.03;5046871;28;20505;-79
2022/07/31 06:19:35;;;;;;;3.30;0.38;;;;;;;15.86;100.00;100543.66;5038644;28;20029;-79
2022/07/31 06:22:00;;;;;;;1.02;0.30;;;;;;;15.89;100.00;100542.50;5025729;28;20033;-81
2022/07/31 06:24:29;;;;;;;3.03;0.38;;;;;;;15.93;100.00;100551.78;5050614;28;20120;-80
2022/07/31 06:26:57;;;;;;;0.70;0.40;;;;;;;15.98;100.00;100549.47;5044346;28;20032;-80
2022/07/31 06:29:23;;;;;;;1.50;0.43;;;;;;;16.02;100.00;100560.59;5064964;28;20036;-81
2022/07/31 06:31:49;;;;;;;0.90;0.20;;;;;;;16.08;100.00;100556.38;5051217;28;20033;-79
2022/07/31 06:34:15;;;;;;;0.35;0.20;;;;;;;16.05;100.00;100560.25;5049295;28;20029;-79
2022/07/31 06:36:42;;;;;;;0.45;0.30;;;;;;;16.09;100.00;100561.53;5074052;28;20037;-79
2022/07/31 06:39:14;;;;;;;0.70;0.20;;;;;;;16.14;100.00;100555.66;5026171;28;20101;-79
2022/07/31 06:41:58;;;;;;;1.85;0.50;;;;;;;16.20;100.00;100562.97;5052334;28;20096;-79
2022/07/31 06:44:28;;;;;;;1.27;0.30;;;;;;;16.26;100.00;100560.59;5053263;28;20424;-79
2022/07/31 06:47:14;;;;;;;2.10;0.30;;;;;;;16.29;100.00;100557.56;5054755;28;20028;-79
2022/07/31 06:49:55;;;;;;;2.20;0.20;;;;;;;16.31;100.00;100559.03;5051485;28;20524;-79
2022/07/31 06:52:24;;;;;;;0.70;0.30;;;;;;;16.21;100.00;100566.47;5049355;28;20044;-79
2022/07/31 06:54:51;;;;;;;0.80;0.80;;;;;;;16.08;100.00;100562.56;5067576;28;20083;-79
2022/07/31 06:57:17;;;;;;;2.05;0.82;;;;;;;15.98;100.00;100572.63;5042295;28;20037;-80
2022/07/31 06:59:43;;;;;;;0.88;0.80;;;;;;;15.89;100.00;100574.47;5053079;28;20029;-81
2022/07/31 07:02:10;;;;;;;1.88;0.98;;;;;;;15.89;100.00;100574.47;5049660;28;20043;-79
2022/07/31 07:04:36;;;;;;;1.77;1.17;;;;;;;15.88;100.00;100580.81;5058666;28;20478;-79
2022/07/31 07:07:03;;;;;;;4.07;0.90;;;;;;;15.86;100.00;100583.63;5057863;28;20040;-80
2022/07/31 07:09:29;;;;;;;2.30;1.52;;;;;;;15.88;100.00;100594.13;5060535;28;20041;-81
2022/07/31 07:11:55;;;;;;;2.80;1.10;;;;;;;15.84;100.00;100590.16;5056456;28;20833;-79
2022/07/31 07:14:22;;;;;;;1.00;0.90;;;;;;;15.86;100.00;100596.16;5041632;28;20041;-79
2022/07/31 07:16:48;;;;;;;3.03;1.10;;;;;;;15.89;100.00;100595.81;5049343;28;20401;-79
2022/07/31 07:19:14;;;;;;;1.88;1.10;;;;;;;15.90;100.00;100604.63;5051158;28;20043;-79
2022/07/31 07:21:41;;;;;;;2.58;1.10;;;;;;;15.89;100.00;100603.81;5026005;28;20040;-79
2022/07/31 07:24:07;;;;;;;2.17;1.10;;;;;;;15.89;100.00;100609.13;5041804;28;20033;-79
2022/07/31 07:26:42;;;;;;;1.95;1.02;;;;;;;15.86;100.00;100615.63;5050574;28;20087;-79
2022/07/31 07:29:09;;;;;;;1.92;1.17;;;;;;;15.82;100.00;100618.81;5055370;28;20032;-79
2022/07/31 07:31:36;;;;;;;1.17;0.85;;;;;;;15.79;100.00;100619.16;5041384;28;20032;-79
2022/07/31 07:34:04;;;;;;;1.50;0.95;;;;;;;15.79;100.00;100613.84;5048882;28;20178;-78
2022/07/31 07:36:32;;;;;;;3.42;1.38;;;;;;;15.78;100.00;100618.34;5047207;28;20482;-79
2022/07/31 07:39:24;;;;;;;4.13;1.20;;;;;;;15.72;100.00;100625.19;5029703;28;20041;-79
2022/07/31 07:41:51;;;;;;;4.43;1.42;;;;;;;15.69;100.00;100628.22;5037481;28;20029;-80
2022/07/31 07:44:17;;;;;;;2.55;1.55;;;;;;;15.63;100.00;100628.91;5045454;28;20063;-80
2022/07/31 07:46:44;;;;;;;1.50;1.40;;;;;;;15.58;100.00;100636.59;5053410;28;20124;-79
2022/07/31 07:49:13;;;;;;;4.78;1.70;;;;;;;15.49;100.00;100635.78;5044250;28;20114;-79
2022/07/31 07:52:07;;;;;;;1.88;1.40;;;;;;;15.46;100.00;100639.66;5048862;28;20048;-79
2022/07/31 07:54:42;;;;;;;1.52;1.23;;;;;;;15.41;100.00;100635.81;5045154;28;20439;-79
2022/07/31 07:57:21;;;;;;;1.48;1.38;;;;;;;15.43;100.00;100647.13;5058122;28;20109;-80
2022/07/31 08:00:07;;;;;;;0.85;0.85;;;;;;;15.45;100.00;100651.28;5061076;28;20041;-80
2022/07/31 08:02:47;;;;;;;4.22;1.00;;;;;;;15.46;100.00;100650.31;5047107;28;20032;-79
2022/07/31 08:05:15;;;;;;;1.30;1.10;;;;;;;15.50;100.00;100646.28;5051232;28;20079;-79
2022/07/31 08:07:42;;;;;;;2.45;1.77;;;;;;;15.59;100.00;100649.72;5065969;28;20041;-79
2022/07/31 08:10:22;;;;;;;1.17;0.65;;;;;;;15.66;100.00;100655.22;5045128;28;20499;-79
2022/07/31 08:13:08;;;;;;;0.90;0.57;;;;;;;15.65;100.00;100660.72;5052423;28;20053;-79
2022/07/31 08:16:06;;;;;;;0.75;0.65;;;;;;;15.58;100.00;100661.41;5019527;28;20045;-79
2022/07/31 08:18:39;;;;;;;0.85;0.70;;;;;;;15.56;100.00;100660.72;5048695;28;20051;-79
2022/07/31 08:21:05;;;;;;;3.53;0.63;;;;;;;15.67;100.00;100654.19;5048113;28;20029;-79
2022/07/31 08:23:31;;;;;;;3.53;0.60;;;;;;;15.73;100.00;100658.00;5049692;28;20420;-78
2022/07/31 08:25:57;;;;;;;0.43;0.38;;;;;;;15.74;100.00;100663.16;5032371;28;20032;-78
2022/07/31 08:28:24;;;;;;;0.98;0.50;;;;;;;15.72;100.00;100675.00;5070366;28;20040;-80
2022/07/31 08:30:51;;;;;;;2.58;0.50;;;;;;;15.65;100.00;100669.53;5050911;28;20091;-80
2022/07/31 08:33:19;;;;;;;3.08;0.68;;;;;;;15.61;100.00;100668.22;5028917;28;20067;-80
2022/07/31 08:35:52;;;;;;;2.00;0.40;;;;;;;15.64;100.00;100675.84;5052197;28;20029;-80
2022/07/31 08:38:19;;;;;;;2.38;0.47;;;;;;;15.67;100.00;100672.03;5051024;28;20131;-80
2022/07/31 08:41:06;;;;;;;2.25;0.65;;;;;;;15.63;100.00;100674.19;5041264;28;20093;-80
2022/07/31 08:43:33;;;;;;;3.53;0.50;;;;;;;15.62;100.00;100667.22;5063810;28;20038;-80
2022/07/31 08:46:01;;;;;;;0.38;0.30;;;;;;;15.57;100.00;100670.41;5039259;28;20398;-80
2022/07/31 08:48:32;;;;;;;1.17;0.45;;;;;;;15.66;100.00;100675.69;5089424;28;20441;-78
2022/07/31 08:51:03;;;;;;;1.73;0.57;;;;;;;15.73;100.00;100672.19;5033258;28;20036;-78
2022/07/31 08:54:07;;;;;;;0.43;0.40;;;;;;;15.72;100.00;100682.97;5052648;28;20052;-78
2022/07/31 08:56:34;;;;;;;1.38;0.50;;;;;;;15.71;100.00;100679.50;5076179;28;20032;-79
2022/07/31 08:59:01;;;;;;;2.10;0.50;;;;;;;15.73;100.00;100684.66;5069441;28;20032;-79
2022/07/31 09:01:27;;;;;;;1.02;0.40;;;;;;;15.73;100.00;100676.66;5040972;28;20231;-79
2022/07/31 09:03:53;;;;;;;0.82;0.30;;;;;;;15.72;100.00;100675.84;5054301;28;20072;-78
2022/07/31 09:06:19;;;;;;;0.88;0.60;;;;;;;15.72;100.00;100678.50;5057580;28;20037;-78
2022/07/31 09:08:45;;;;;;;1.55;0.40;;;;;;;15.75;100.00;100683.47;5059837;28;20037;-78
2022/07/31 09:11:13;;;;;;;0.50;0.40;;;;;;;15.78;100.00;100684.16;5055217;28;20036;-78
2022/07/31 09:13:56;;;;;;;1.13;0.30;;;;;;;15.74;100.00;100694.31;5044800;28;20056;-78
2022/07/31 09:16:49;;;;;;;0.73;0.47;;;;;;;15.69;100.00;100700.16;5049736;28;20049;-78
2022/07/31 09:19:17;;;;;;;2.10;0.50;;;;;;;15.64;100.00;100694.50;5081830;28;20029;-79
2022/07/31 09:21:44;;;;;;;1.70;0.82;;;;;;;15.58;100.00;100706.69;5043742;28;20036;-79
2022/07/31 09:24:12;;;;;;;7.22;0.82;;;;;;;15.55;100.00;100701.72;5049529;28;20044;-78
2022/07/31 09:26:39;;;;;;;1.15;0.93;;;;;;;15.49;100.00;100708.56;5042919;28;20033;-78
2022/07/31 09:29:10;;;;;;;1.35;1.20;;;;;;;15.44;100.00;100713.56;5049114;28;20036;-78
2022/07/31 09:31:37;;;;;;;2.67;1.25;;;;;;;15.36;100.00;100708.25;5049300;28;20094;-80
2022/07/31 09:34:26;;;;;;;4.82;1.50;;;;;;;15.28;100.00;100708.25;5054594;28;20159;-80
2022/07/31 09:37:11;;;;;;;5.10;1.60;;;;;;;15.31;100.00;100706.09;5050084;28;20028;-80
2022/07/31 09:40:10;;;;;;;9.38;1.42;;;;;;;15.29;100.00;100716.06;5047250;28;20462;-80
2022/07/31 09:42:46;;;;;;;3.72;1.70;;;;;;;15.32;100.00;100712.25;5041001;28;20052;-78
2022/07/31 09:45:22;;;;;;;4.32;1.55;;;;;;;15.28;100.00;100711.75;5063571;28;20056;-78
2022/07/31 09:48:11;;;;;;;2.50;1.48;;;;;;;15.32;100.00;100712.25;5063629;28;20099;-78
2022/07/31 09:50:50;;;;;;;1.98;1.15;;;;;;;15.35;100.00;100711.91;5036670;28;20494;-78
2022/07/31 09:53:18;;;;;;;2.45;1.40;;;;;;;15.39;100.00;100718.56;5060465;28;20154;-78
2022/07/31 09:55:54;;;;;;;3.28;1.50;;;;;;;15.49;100.00;100711.22;5002209;28;20028;-78
2022/07/31 09:58:21;;;;;;;3.78;1.42;;;;;;;15.44;100.00;100712.72;5045801;28;20030;-80
2022/07/31 10:00:50;;;;;;;2.67;0.98;;;;;;;15.37;100.00;100717.88;5061675;28;20044;-81
2022/07/31 10:03:18;;;;;;;1.88;1.10;;;;;;;15.41;100.00;100716.56;5041777;28;20029;-81
2022/07/31 10:05:45;;;;;;;2.80;1.20;;;;;;;15.43;100.00;100724.38;5044261;28;20899;-80
2022/07/31 10:08:16;;;;;;;1.58;0.90;;;;;;;15.52;100.00;100730.50;5050400;28;20033;-78
2022/07/31 10:11:05;;;;;;;1.60;1.05;;;;;;;15.59;100.00;100723.53;5083241;28;20036;-77
2022/07/31 10:13:58;;;;;;;2.47;1.20;;;;;;;15.69;100.00;100737.47;5043755;28;20112;-78
2022/07/31 10:16:26;;;;;;;2.28;0.95;;;;;;;15.74;100.00;100732.47;5059377;28;20041;-79
2022/07/31 10:19:13;;;;;;;2.35;1.00;;;;;;;15.80;100.00;100733.59;5043544;28;20036;-78
2022/07/31 10:22:02;;;;;;;3.38;0.93;;;;;;;15.86;100.00;100737.44;5043127;28;20047;-79
2022/07/31 10:24:39;;;;;;;2.33;1.30;;;;;;;15.94;100.00;100736.56;5054638;28;20040;-78
2022/07/31 10:27:06;;;;;;;2.55;1.30;;;;;;;15.95;100.00;100740.88;5032760;28;20029;-78
2022/07/31 10:29:35;;;;;;;3.20;0.85;;;;;;;15.91;100.00;100742.25;5062885;28;20040;-78
2022/07/31 10:32:05;;;;;;;2.35;1.00;;;;;;;15.94;100.00;100744.56;5044328;28;20507;-78
2022/07/31 10:34:34;;;;;;;3.35;0.77;;;;;;;16.03;100.00;100740.03;5044657;28;20017;-78
2022/07/31 10:37:42;;;;;;;4.40;1.00;;;;;;;16.12;100.00;100741.66;5017029;28;20041;-78
2022/07/31 10:40:35;;;;;;;1.15;0.60;;;;;;;16.18;100.00;100740.16;5025808;28;20040;-78
2022/07/31 10:43:08;;;;;;;3.80;1.00;;;;;;;16.30;100.00;100745.91;5039269;28;20047;-80
2022/07/31 10:45:54;;;;;;;2.55;1.00;;;;;;;16.30;100.00;100749.41;5035361;28;20203;-80
2022/07/31 10:48:53;;;;;;;0.80;0.63;;;;;;;16.34;99.73;100745.38;5038015;28;20025;-78
2022/07/31 10:51:57;;;;;;;0.70;0.70;;;;;;;16.60;100.00;100754.06;5010208;28;20092;-78
2022/07/31 10:55:00;;;;;;;1.88;1.38;;;;;;;16.76;100.00;100750.47;4989107;28;20534;-78
2022/07/31 10:57:50;;;;;;;2.03;0.90;;;;;;;16.66;98.69;100756.03;5033851;28;20029;-78
2022/07/31 11:00:52;;;;;;;2.75;0.70;;;;;;;16.58;98.26;100762.25;5006807;28;20025;-79
2022/07/31 11:03:24;;;;;;;2.13;0.90;;;;;;;16.53;98.60;100755.81;5042044;28;20025;-78
2022/07/31 11:06:16;;;;;;;2.17;1.00;;;;;;;16.63;99.65;100760.91;5040637;28;20112;-78
2022/07/31 11:09:09;;;;;;;2.08;0.65;;;;;;;16.74;99.56;100764.00;5022267;28;20124;-78
2022/07/31 11:12:01;;;;;;;1.42;0.60;;;;;;;16.80;99.07;100762.44;5030565;28;20057;-78
2022/07/31 11:14:40;;;;;;;2.10;0.55;;;;;;;17.02;98.92;100761.78;5041453;28;20540;-78
2022/07/31 11:17:35;;;;;;;0.40;0.40;;;;;;;17.12;98.45;100757.06;5024916;28;20021;-80
2022/07/31 11:20:29;;;;;;;1.80;0.70;;;;;;;17.15;97.47;100756.72;5043600;28;20029;-80
2022/07/31 11:23:02;;;;;;;1.08;0.65;;;;;;;17.31;97.64;100754.91;5038623;28;20043;-78
2022/07/31 11:25:30;;;;;;;0.40;0.40;;;;;;;17.57;97.35;100754.47;5055032;28;20036;-78
2022/07/31 11:28:08;;;;;;;1.80;0.47;;;;;;;17.89;96.44;100751.63;5059862;28;20571;-78
2022/07/31 11:30:34;;;;;;;0.93;0.30;;;;;;;18.10;94.52;100756.22;5046622;28;20045;-78
2022/07/31 11:33:00;;;;;;;1.30;0.40;;;;;;;18.22;92.66;100755.75;5053507;28;20033;-78
2022/07/31 11:35:28;;;;;;;2.25;0.38;;;;;;;18.31;91.16;100753.81;5048516;28;20031;-78
2022/07/31 11:37:55;;;;;;;3.08;0.47;;;;;;;18.35;90.43;100753.22;5061331;28;20033;-78